sensor_id;sensor_type;location;lat;lon;timestamp;temperature;humidity
5276;DHT22;2661;50.786;12.728;2023-04-16T00:01:35;7.50;1.00
5276;DHT22;2661;50.786;12.728;2023-04-16T00:04:01;7.50;1.00
5276;DHT22;2661;50.786;12.728;2023-04-16T00:06:29;7.50;1.00
5276;DHT22;2661;50.786;12.728;2023-04-16T00:08:57;7.50;1.00
5276;DHT22;2661;50.786;12.728;2023-04-16T00:11:23;7.50;1.00
5276;DHT22;2661;50.786;12.728;2023-04-16T00:13:51;7.50;1.00
5276;DHT22;2661;50.786;12.728;2023-04-16T00:16:17;7.50;1.00
5276;DHT22;2661;50.786;12.728;2023-04-16T00:18:44;7.50;1.00
5276;DHT22;2661;50.786;12.728;2023-04-16T00:21:11;7.50;1.00
5276;DHT22;2661;50.786;12.728;2023-04-16T00:23:37;7.50;1.00
5276;DHT22;2661;50.786;12.728;2023-04-16T00:26:04;7.40;1.00
5276;DHT22;2661;50.786;12.728;2023-04-16T00:28:30;7.50;1.00
5276;DHT22;2661;50.786;12.728;2023-04-16T00:30:57;7.50;1.00
5276;DHT22;2661;50.786;12.728;2023-04-16T00:33:23;7.50;1.00
5276;DHT22;2661;50.786;12.728;2023-04-16T00:35:50;7.50;1.00
5276;DHT22;2661;50.786;12.728;2023-04-16T00:38:17;7.50;1.00
5276;DHT22;2661;50.786;12.728;2023-04-16T00:40:43;7.50;1.00
5276;DHT22;2661;50.786;12.728;2023-04-16T00:43:10;7.50;1.00
5276;DHT22;2661;50.786;12.728;2023-04-16T00:45:36;7.50;1.00
5276;DHT22;2661;50.786;12.728;2023-04-16T00:48:03;7.50;1.00
5276;DHT22;2661;50.786;12.728;2023-04-16T00:50:30;7.50;1.00
5276;DHT22;2661;50.786;12.728;2023-04-16T00:52:56;7.60;1.00
5276;DHT22;2661;50.786;12.728;2023-04-16T00:55:23;7.60;1.00
5276;DHT22;2661;50.786;12.728;2023-04-16T00:57:50;7.60;1.00
5276;DHT22;2661;50.786;12.728;2023-04-16T01:00:16;7.60;1.00
5276;DHT22;2661;50.786;12.728;2023-04-16T01:02:43;7.50;1.00
5276;DHT22;2661;50.786;12.728;2023-04-16T01:05:10;7.50;1.00
5276;DHT22;2661;50.786;12.728;2023-04-16T01:07:36;7.50;1.00
5276;DHT22;2661;50.786;12.728;2023-04-16T01:10:03;7.50;1.00
5276;DHT22;2661;50.786;12.728;2023-04-16T01:12:29;7.50;1.00
5276;DHT22;2661;50.786;12.728;2023-04-16T01:14:56;7.60;1.00
5276;DHT22;2661;50.786;12.728;2023-04-16T01:17:23;7.60;1.00
5276;DHT22;2661;50.786;12.728;2023-04-16T01:19:50;7.60;1.00
5276;DHT22;2661;50.786;12.728;2023-04-16T01:22:16;7.60;1.00
5276;DHT22;2661;50.786;12.728;2023-04-16T01:24:43;7.50;1.00
5276;DHT22;2661;50.786;12.728;2023-04-16T01:27:10;7.60;1.00
5276;DHT22;2661;50.786;12.728;2023-04-16T01:29:40;7.60;1.00
5276;DHT22;2661;50.786;12.728;2023-04-16T01:32:06;7.60;1.00
5276;DHT22;2661;50.786;12.728;2023-04-16T01:34:33;7.60;1.00
5276;DHT22;2661;50.786;12.728;2023-04-16T01:36:59;7.60;1.00
5276;DHT22;2661;50.786;12.728;2023-04-16T01:39:26;7.70;1.00
5276;DHT22;2661;50.786;12.728;2023-04-16T01:41:53;7.70;1.00
5276;DHT22;2661;50.786;12.728;2023-04-16T01:44:19;7.70;1.00
5276;DHT22;2661;50.786;12.728;2023-04-16T01:46:47;7.60;1.00
5276;DHT22;2661;50.786;12.728;2023-04-16T01:49:14;7.60;1.00
5276;DHT22;2661;50.786;12.728;2023-04-16T01:51:41;7.60;1.00
5276;DHT22;2661;50.786;12.728;2023-04-16T01:54:07;7.60;1.00
5276;DHT22;2661;50.786;12.728;2023-04-16T01:56:34;7.50;1.00
5276;DHT22;2661;50.786;12.728;2023-04-16T01:59:01;7.50;1.00
5276;DHT22;2661;50.786;12.728;2023-04-16T02:01:27;7.50;1.00
5276;DHT22;2661;50.786;12.728;2023-04-16T02:03:54;7.50;1.00
5276;DHT22;2661;50.786;12.728;2023-04-16T02:06:22;7.50;1.00
5276;DHT22;2661;50.786;12.728;2023-04-16T02:08:48;7.50;1.00
5276;DHT22;2661;50.786;12.728;2023-04-16T02:11:15;7.50;1.00
5276;DHT22;2661;50.786;12.728;2023-04-16T02:13:41;7.50;1.00
5276;DHT22;2661;50.786;12.728;2023-04-16T02:16:08;7.50;1.00
5276;DHT22;2661;50.786;12.728;2023-04-16T02:18:34;7.50;1.00
5276;DHT22;2661;50.786;12.728;2023-04-16T02:21:01;7.50;1.00
5276;DHT22;2661;50.786;12.728;2023-04-16T02:23:28;7.50;1.00
5276;DHT22;2661;50.786;12.728;2023-04-16T02:25:54;7.50;1.00
5276;DHT22;2661;50.786;12.728;2023-04-16T02:28:21;7.50;1.00
5276;DHT22;2661;50.786;12.728;2023-04-16T02:30:47;7.50;1.00
5276;DHT22;2661;50.786;12.728;2023-04-16T02:33:14;7.50;1.00
5276;DHT22;2661;50.786;12.728;2023-04-16T02:35:41;7.50;1.00
5276;DHT22;2661;50.786;12.728;2023-04-16T02:38:07;7.50;1.00
5276;DHT22;2661;50.786;12.728;2023-04-16T02:40:34;7.50;1.00
5276;DHT22;2661;50.786;12.728;2023-04-16T02:43:01;7.50;1.00
5276;DHT22;2661;50.786;12.728;2023-04-16T02:45:27;7.50;1.00
5276;DHT22;2661;50.786;12.728;2023-04-16T02:47:56;7.50;1.00
5276;DHT22;2661;50.786;12.728;2023-04-16T02:50:23;7.50;1.00
5276;DHT22;2661;50.786;12.728;2023-04-16T02:52:51;7.60;1.00
5276;DHT22;2661;50.786;12.728;2023-04-16T02:55:18;7.60;1.00
5276;DHT22;2661;50.786;12.728;2023-04-16T02:57:45;7.60;1.00
5276;DHT22;2661;50.786;12.728;2023-04-16T03:00:11;7.50;1.00
5276;DHT22;2661;50.786;12.728;2023-04-16T03:02:38;7.50;1.00
5276;DHT22;2661;50.786;12.728;2023-04-16T03:05:05;7.50;1.00
5276;DHT22;2661;50.786;12.728;2023-04-16T03:07:31;7.50;1.00
5276;DHT22;2661;50.786;12.728;2023-04-16T03:09:58;7.50;1.00
5276;DHT22;2661;50.786;12.728;2023-04-16T03:12:24;7.50;1.00
5276;DHT22;2661;50.786;12.728;2023-04-16T03:14:51;7.50;1.00
5276;DHT22;2661;50.786;12.728;2023-04-16T03:17:18;7.50;1.00
5276;DHT22;2661;50.786;12.728;2023-04-16T03:19:44;7.50;1.00
5276;DHT22;2661;50.786;12.728;2023-04-16T03:22:11;7.60;1.00
5276;DHT22;2661;50.786;12.728;2023-04-16T03:24:38;7.60;1.00
5276;DHT22;2661;50.786;12.728;2023-04-16T03:27:04;7.60;1.00
5276;DHT22;2661;50.786;12.728;2023-04-16T03:29:31;7.50;1.00
5276;DHT22;2661;50.786;12.728;2023-04-16T03:31:58;7.50;1.00
5276;DHT22;2661;50.786;12.728;2023-04-16T03:34:24;7.50;1.00
5276;DHT22;2661;50.786;12.728;2023-04-16T03:36:51;7.50;1.00
5276;DHT22;2661;50.786;12.728;2023-04-16T03:39:17;7.50;1.00
5276;DHT22;2661;50.786;12.728;2023-04-16T03:41:44;7.50;1.00
5276;DHT22;2661;50.786;12.728;2023-04-16T03:44:10;7.50;1.00
5276;DHT22;2661;50.786;12.728;2023-04-16T03:46:37;7.50;1.00
5276;DHT22;2661;50.786;12.728;2023-04-16T03:49:03;7.50;1.00
5276;DHT22;2661;50.786;12.728;2023-04-16T03:51:33;7.50;1.00
5276;DHT22;2661;50.786;12.728;2023-04-16T03:54:00;7.50;1.00
5276;DHT22;2661;50.786;12.728;2023-04-16T03:56:27;7.50;1.00
5276;DHT22;2661;50.786;12.728;2023-04-16T03:58:53;7.50;1.00
5276;DHT22;2661;50.786;12.728;2023-04-16T04:01:20;7.60;1.00
5276;DHT22;2661;50.786;12.728;2023-04-16T04:03:46;7.60;1.00
5276;DHT22;2661;50.786;12.728;2023-04-16T04:06:13;7.50;1.00
5276;DHT22;2661;50.786;12.728;2023-04-16T04:08:40;7.50;1.00
5276;DHT22;2661;50.786;12.728;2023-04-16T04:11:06;7.50;1.00
5276;DHT22;2661;50.786;12.728;2023-04-16T04:13:33;7.40;1.00
5276;DHT22;2661;50.786;12.728;2023-04-16T04:15:59;7.40;1.00
5276;DHT22;2661;50.786;12.728;2023-04-16T04:18:27;7.40;1.00
5276;DHT22;2661;50.786;12.728;2023-04-16T04:20:54;7.30;1.00
5276;DHT22;2661;50.786;12.728;2023-04-16T04:23:20;7.30;1.00
5276;DHT22;2661;50.786;12.728;2023-04-16T04:25:47;7.30;1.00
5276;DHT22;2661;50.786;12.728;2023-04-16T04:28:14;7.30;1.00
5276;DHT22;2661;50.786;12.728;2023-04-16T04:30:40;7.40;1.00
5276;DHT22;2661;50.786;12.728;2023-04-16T04:33:07;7.30;1.00
5276;DHT22;2661;50.786;12.728;2023-04-16T04:35:34;7.30;1.00
5276;DHT22;2661;50.786;12.728;2023-04-16T04:38:01;7.30;1.00
5276;DHT22;2661;50.786;12.728;2023-04-16T04:40:28;7.40;1.00
5276;DHT22;2661;50.786;12.728;2023-04-16T04:42:54;7.40;1.00
5276;DHT22;2661;50.786;12.728;2023-04-16T04:45:21;7.40;1.00
5276;DHT22;2661;50.786;12.728;2023-04-16T04:47:51;7.30;1.00
5276;DHT22;2661;50.786;12.728;2023-04-16T04:50:18;7.40;1.00
5276;DHT22;2661;50.786;12.728;2023-04-16T04:52:44;7.40;1.00
5276;DHT22;2661;50.786;12.728;2023-04-16T04:55:11;7.50;1.00
5276;DHT22;2661;50.786;12.728;2023-04-16T04:57:39;7.50;1.00
5276;DHT22;2661;50.786;12.728;2023-04-16T05:00:06;7.50;1.00
5276;DHT22;2661;50.786;12.728;2023-04-16T05:02:33;7.50;1.00
5276;DHT22;2661;50.786;12.728;2023-04-16T05:05:00;7.50;1.00
5276;DHT22;2661;50.786;12.728;2023-04-16T05:07:26;7.60;1.00
5276;DHT22;2661;50.786;12.728;2023-04-16T05:09:53;7.60;1.00
5276;DHT22;2661;50.786;12.728;2023-04-16T05:12:19;7.70;1.00
5276;DHT22;2661;50.786;12.728;2023-04-16T05:14:46;7.70;1.00
5276;DHT22;2661;50.786;12.728;2023-04-16T05:17:12;7.70;1.00
5276;DHT22;2661;50.786;12.728;2023-04-16T05:19:39;7.70;1.00
5276;DHT22;2661;50.786;12.728;2023-04-16T05:22:06;7.70;1.00
5276;DHT22;2661;50.786;12.728;2023-04-16T05:24:32;7.70;1.00
5276;DHT22;2661;50.786;12.728;2023-04-16T05:26:59;7.80;1.00
5276;DHT22;2661;50.786;12.728;2023-04-16T05:29:25;7.80;1.00
5276;DHT22;2661;50.786;12.728;2023-04-16T05:31:52;7.80;1.00
5276;DHT22;2661;50.786;12.728;2023-04-16T05:34:18;7.80;1.00
5276;DHT22;2661;50.786;12.728;2023-04-16T05:36:45;7.80;1.00
5276;DHT22;2661;50.786;12.728;2023-04-16T05:39:12;7.80;1.00
5276;DHT22;2661;50.786;12.728;2023-04-16T05:41:44;7.80;1.00
5276;DHT22;2661;50.786;12.728;2023-04-16T05:44:10;7.90;1.00
5276;DHT22;2661;50.786;12.728;2023-04-16T05:46:37;7.80;1.00
5276;DHT22;2661;50.786;12.728;2023-04-16T05:49:03;7.90;1.00
5276;DHT22;2661;50.786;12.728;2023-04-16T05:51:30;7.80;1.00
5276;DHT22;2661;50.786;12.728;2023-04-16T05:53:57;7.80;1.00
5276;DHT22;2661;50.786;12.728;2023-04-16T05:56:24;7.90;1.00
5276;DHT22;2661;50.786;12.728;2023-04-16T05:58:50;7.90;1.00
5276;DHT22;2661;50.786;12.728;2023-04-16T06:01:17;7.90;1.00
5276;DHT22;2661;50.786;12.728;2023-04-16T06:03:44;7.90;1.00
5276;DHT22;2661;50.786;12.728;2023-04-16T06:06:11;8.00;1.00
5276;DHT22;2661;50.786;12.728;2023-04-16T06:08:37;8.00;1.00
5276;DHT22;2661;50.786;12.728;2023-04-16T06:11:04;8.00;1.00
5276;DHT22;2661;50.786;12.728;2023-04-16T06:13:33;8.10;1.00
5276;DHT22;2661;50.786;12.728;2023-04-16T06:16:00;8.10;1.00
5276;DHT22;2661;50.786;12.728;2023-04-16T06:18:27;8.10;1.00
5276;DHT22;2661;50.786;12.728;2023-04-16T06:20:53;8.20;1.00
5276;DHT22;2661;50.786;12.728;2023-04-16T06:23:20;8.20;1.00
5276;DHT22;2661;50.786;12.728;2023-04-16T06:25:46;8.30;1.00
5276;DHT22;2661;50.786;12.728;2023-04-16T06:28:13;8.30;1.00
5276;DHT22;2661;50.786;12.728;2023-04-16T06:30:40;8.40;1.00
5276;DHT22;2661;50.786;12.728;2023-04-16T06:33:09;8.40;1.00
5276;DHT22;2661;50.786;12.728;2023-04-16T06:35:36;8.40;99.90
5276;DHT22;2661;50.786;12.728;2023-04-16T06:38:02;8.50;99.90
5276;DHT22;2661;50.786;12.728;2023-04-16T06:40:29;8.50;99.90
5276;DHT22;2661;50.786;12.728;2023-04-16T06:42:56;8.60;99.90
5276;DHT22;2661;50.786;12.728;2023-04-16T06:45:22;8.60;47.60
5276;DHT22;2661;50.786;12.728;2023-04-16T06:47:49;8.70;1.00
5276;DHT22;2661;50.786;12.728;2023-04-16T06:50:16;8.70;1.00
5276;DHT22;2661;50.786;12.728;2023-04-16T06:52:43;8.70;99.90
5276;DHT22;2661;50.786;12.728;2023-04-16T06:55:09;8.80;99.90
5276;DHT22;2661;50.786;12.728;2023-04-16T06:57:36;8.80;1.00
5276;DHT22;2661;50.786;12.728;2023-04-16T07:00:03;8.80;1.00
5276;DHT22;2661;50.786;12.728;2023-04-16T07:02:30;8.80;99.90
5276;DHT22;2661;50.786;12.728;2023-04-16T07:04:57;8.80;99.90
5276;DHT22;2661;50.786;12.728;2023-04-16T07:07:23;8.80;99.90
5276;DHT22;2661;50.786;12.728;2023-04-16T07:09:50;8.90;1.00
5276;DHT22;2661;50.786;12.728;2023-04-16T07:12:17;8.80;1.00
5276;DHT22;2661;50.786;12.728;2023-04-16T07:14:47;8.80;99.90
5276;DHT22;2661;50.786;12.728;2023-04-16T07:17:14;8.80;1.00
5276;DHT22;2661;50.786;12.728;2023-04-16T07:19:40;8.80;1.00
5276;DHT22;2661;50.786;12.728;2023-04-16T07:22:07;8.90;10.00
5276;DHT22;2661;50.786;12.728;2023-04-16T07:24:34;8.90;1.00
5276;DHT22;2661;50.786;12.728;2023-04-16T07:27:01;8.90;1.00
5276;DHT22;2661;50.786;12.728;2023-04-16T07:29:27;9.00;1.00
5276;DHT22;2661;50.786;12.728;2023-04-16T07:31:54;9.00;1.00
5276;DHT22;2661;50.786;12.728;2023-04-16T07:34:20;9.10;1.00
5276;DHT22;2661;50.786;12.728;2023-04-16T07:36:47;9.10;99.90
5276;DHT22;2661;50.786;12.728;2023-04-16T07:39:14;9.10;99.90
5276;DHT22;2661;50.786;12.728;2023-04-16T07:41:40;9.10;99.90
5276;DHT22;2661;50.786;12.728;2023-04-16T07:44:07;9.20;1.00
5276;DHT22;2661;50.786;12.728;2023-04-16T07:46:33;9.20;1.00
5276;DHT22;2661;50.786;12.728;2023-04-16T07:49:12;9.20;1.00
5276;DHT22;2661;50.786;12.728;2023-04-16T07:51:38;9.30;1.00
5276;DHT22;2661;50.786;12.728;2023-04-16T07:54:05;9.40;1.00
5276;DHT22;2661;50.786;12.728;2023-04-16T07:56:31;9.50;99.90
5276;DHT22;2661;50.786;12.728;2023-04-16T07:58:58;9.50;99.90
5276;DHT22;2661;50.786;12.728;2023-04-16T08:01:40;9.70;1.00
5276;DHT22;2661;50.786;12.728;2023-04-16T08:04:06;9.80;99.90
5276;DHT22;2661;50.786;12.728;2023-04-16T08:06:33;9.80;99.90
5276;DHT22;2661;50.786;12.728;2023-04-16T08:09:00;9.80;99.90
5276;DHT22;2661;50.786;12.728;2023-04-16T08:11:26;9.90;99.90
5276;DHT22;2661;50.786;12.728;2023-04-16T08:13:53;10.00;1.00
5276;DHT22;2661;50.786;12.728;2023-04-16T08:16:20;10.00;1.00
5276;DHT22;2661;50.786;12.728;2023-04-16T08:18:46;10.00;99.90
5276;DHT22;2661;50.786;12.728;2023-04-16T08:21:13;10.10;99.90
5276;DHT22;2661;50.786;12.728;2023-04-16T08:23:39;10.10;2.40
5276;DHT22;2661;50.786;12.728;2023-04-16T08:26:06;10.20;1.00
5276;DHT22;2661;50.786;12.728;2023-04-16T08:28:33;10.20;3.10
5276;DHT22;2661;50.786;12.728;2023-04-16T08:30:59;10.30;20.10
5276;DHT22;2661;50.786;12.728;2023-04-16T08:33:26;10.50;1.00
5276;DHT22;2661;50.786;12.728;2023-04-16T08:35:52;10.50;1.00
5276;DHT22;2661;50.786;12.728;2023-04-16T08:38:20;10.60;1.00
5276;DHT22;2661;50.786;12.728;2023-04-16T08:40:46;10.60;99.90
5276;DHT22;2661;50.786;12.728;2023-04-16T08:43:13;10.70;99.90
5276;DHT22;2661;50.786;12.728;2023-04-16T08:45:41;10.60;99.90
5276;DHT22;2661;50.786;12.728;2023-04-16T08:48:08;10.60;99.90
5276;DHT22;2661;50.786;12.728;2023-04-16T08:50:36;10.60;99.90
5276;DHT22;2661;50.786;12.728;2023-04-16T08:53:04;10.70;99.90
5276;DHT22;2661;50.786;12.728;2023-04-16T08:55:41;10.60;99.90
5276;DHT22;2661;50.786;12.728;2023-04-16T09:00:38;10.70;99.90
5276;DHT22;2661;50.786;12.728;2023-04-16T09:03:06;10.70;99.90
5276;DHT22;2661;50.786;12.728;2023-04-16T09:05:33;10.80;99.90
5276;DHT22;2661;50.786;12.728;2023-04-16T09:08:00;10.70;99.90
5276;DHT22;2661;50.786;12.728;2023-04-16T09:10:27;10.80;99.90
5276;DHT22;2661;50.786;12.728;2023-04-16T09:12:57;10.80;99.90
5276;DHT22;2661;50.786;12.728;2023-04-16T09:15:24;10.80;99.90
5276;DHT22;2661;50.786;12.728;2023-04-16T09:17:51;10.90;99.90
5276;DHT22;2661;50.786;12.728;2023-04-16T09:20:18;10.90;99.90
5276;DHT22;2661;50.786;12.728;2023-04-16T09:22:45;10.90;99.90
5276;DHT22;2661;50.786;12.728;2023-04-16T09:25:12;10.90;99.90
5276;DHT22;2661;50.786;12.728;2023-04-16T09:27:39;10.90;99.90
5276;DHT22;2661;50.786;12.728;2023-04-16T09:30:22;10.80;99.90
5276;DHT22;2661;50.786;12.728;2023-04-16T09:32:50;10.90;99.90
5276;DHT22;2661;50.786;12.728;2023-04-16T09:35:17;10.90;99.90
5276;DHT22;2661;50.786;12.728;2023-04-16T09:37:53;10.90;99.90
5276;DHT22;2661;50.786;12.728;2023-04-16T09:40:23;11.00;99.90
5276;DHT22;2661;50.786;12.728;2023-04-16T09:42:50;11.00;99.90
5276;DHT22;2661;50.786;12.728;2023-04-16T09:45:17;11.10;99.90
5276;DHT22;2661;50.786;12.728;2023-04-16T09:47:44;11.10;99.90
5276;DHT22;2661;50.786;12.728;2023-04-16T09:50:15;11.00;99.90
5276;DHT22;2661;50.786;12.728;2023-04-16T09:52:46;11.00;99.90
5276;DHT22;2661;50.786;12.728;2023-04-16T09:55:13;10.90;99.90
5276;DHT22;2661;50.786;12.728;2023-04-16T09:57:39;10.90;99.90
5276;DHT22;2661;50.786;12.728;2023-04-16T10:00:07;11.00;99.90
5276;DHT22;2661;50.786;12.728;2023-04-16T10:02:35;11.10;99.90
5276;DHT22;2661;50.786;12.728;2023-04-16T10:05:04;11.10;99.90
5276;DHT22;2661;50.786;12.728;2023-04-16T10:07:32;11.20;99.90
5276;DHT22;2661;50.786;12.728;2023-04-16T10:09:59;11.30;99.90
5276;DHT22;2661;50.786;12.728;2023-04-16T10:12:25;11.30;99.90
5276;DHT22;2661;50.786;12.728;2023-04-16T10:14:54;11.30;99.90
5276;DHT22;2661;50.786;12.728;2023-04-16T10:17:21;11.40;99.90
5276;DHT22;2661;50.786;12.728;2023-04-16T10:19:49;11.40;99.90
5276;DHT22;2661;50.786;12.728;2023-04-16T10:22:16;11.40;99.90
5276;DHT22;2661;50.786;12.728;2023-04-16T10:24:42;11.30;99.90
5276;DHT22;2661;50.786;12.728;2023-04-16T10:27:10;11.30;94.70
5276;DHT22;2661;50.786;12.728;2023-04-16T10:29:37;11.30;99.90
5276;DHT22;2661;50.786;12.728;2023-04-16T10:32:04;11.40;96.00
5276;DHT22;2661;50.786;12.728;2023-04-16T10:34:32;11.30;94.50
5276;DHT22;2661;50.786;12.728;2023-04-16T10:36:59;11.30;90.50
5276;DHT22;2661;50.786;12.728;2023-04-16T10:39:26;11.30;99.90
5276;DHT22;2661;50.786;12.728;2023-04-16T10:42:07;11.30;99.90
5276;DHT22;2661;50.786;12.728;2023-04-16T10:44:34;11.50;61.80
5276;DHT22;2661;50.786;12.728;2023-04-16T10:47:01;11.60;86.00
5276;DHT22;2661;50.786;12.728;2023-04-16T10:49:28;11.70;84.60
5276;DHT22;2661;50.786;12.728;2023-04-16T10:51:59;11.70;91.60
5276;DHT22;2661;50.786;12.728;2023-04-16T10:54:28;11.80;86.50
5276;DHT22;2661;50.786;12.728;2023-04-16T10:56:56;11.90;87.70
5276;DHT22;2661;50.786;12.728;2023-04-16T10:59:23;11.90;90.10
5276;DHT22;2661;50.786;12.728;2023-04-16T11:01:51;11.90;90.40
5276;DHT22;2661;50.786;12.728;2023-04-16T11:07:04;12.10;81.30
5276;DHT22;2661;50.786;12.728;2023-04-16T11:09:44;12.10;83.80
5276;DHT22;2661;50.786;12.728;2023-04-16T11:12:12;12.10;75.00
5276;DHT22;2661;50.786;12.728;2023-04-16T11:14:39;12.10;70.50
5276;DHT22;2661;50.786;12.728;2023-04-16T11:17:07;12.10;76.50
5276;DHT22;2661;50.786;12.728;2023-04-16T11:19:37;12.00;63.90
5276;DHT22;2661;50.786;12.728;2023-04-16T11:22:04;12.10;69.90
5276;DHT22;2661;50.786;12.728;2023-04-16T11:24:31;12.00;92.80
5276;DHT22;2661;50.786;12.728;2023-04-16T11:26:57;12.10;67.00
5276;DHT22;2661;50.786;12.728;2023-04-16T11:29:24;12.20;69.40
5276;DHT22;2661;50.786;12.728;2023-04-16T11:31:51;12.30;73.30
5276;DHT22;2661;50.786;12.728;2023-04-16T11:34:19;12.30;70.30
5276;DHT22;2661;50.786;12.728;2023-04-16T11:36:46;12.20;69.60
5276;DHT22;2661;50.786;12.728;2023-04-16T11:39:13;12.20;94.40
5276;DHT22;2661;50.786;12.728;2023-04-16T11:41:43;12.20;96.10
5276;DHT22;2661;50.786;12.728;2023-04-16T11:44:16;12.20;92.00
5276;DHT22;2661;50.786;12.728;2023-04-16T11:46:43;12.30;72.40
5276;DHT22;2661;50.786;12.728;2023-04-16T11:49:10;12.20;77.30
5276;DHT22;2661;50.786;12.728;2023-04-16T11:51:43;12.30;99.90
5276;DHT22;2661;50.786;12.728;2023-04-16T11:54:17;12.30;74.00
5276;DHT22;2661;50.786;12.728;2023-04-16T11:56:44;12.30;70.50
5276;DHT22;2661;50.786;12.728;2023-04-16T12:01:39;12.20;79.10
5276;DHT22;2661;50.786;12.728;2023-04-16T12:04:06;12.30;67.30
5276;DHT22;2661;50.786;12.728;2023-04-16T12:06:33;12.20;88.20
5276;DHT22;2661;50.786;12.728;2023-04-16T12:09:20;12.00;94.60
5276;DHT22;2661;50.786;12.728;2023-04-16T12:11:46;12.10;89.80
5276;DHT22;2661;50.786;12.728;2023-04-16T12:14:13;12.10;92.70
5276;DHT22;2661;50.786;12.728;2023-04-16T12:16:40;12.20;81.30
5276;DHT22;2661;50.786;12.728;2023-04-16T12:19:09;12.00;93.00
5276;DHT22;2661;50.786;12.728;2023-04-16T12:21:37;12.10;95.50
5276;DHT22;2661;50.786;12.728;2023-04-16T12:24:04;12.20;94.00
5276;DHT22;2661;50.786;12.728;2023-04-16T12:26:35;12.20;90.80
5276;DHT22;2661;50.786;12.728;2023-04-16T12:29:14;12.10;63.20
5276;DHT22;2661;50.786;12.728;2023-04-16T12:31:41;12.00;72.10
5276;DHT22;2661;50.786;12.728;2023-04-16T12:34:08;12.00;72.80
5276;DHT22;2661;50.786;12.728;2023-04-16T12:36:35;11.90;85.40
5276;DHT22;2661;50.786;12.728;2023-04-16T12:39:02;11.80;78.30
5276;DHT22;2661;50.786;12.728;2023-04-16T12:41:29;11.80;64.70
5276;DHT22;2661;50.786;12.728;2023-04-16T12:44:06;11.70;70.40
5276;DHT22;2661;50.786;12.728;2023-04-16T12:46:34;11.60;73.80
5276;DHT22;2661;50.786;12.728;2023-04-16T12:49:02;11.60;77.00
5276;DHT22;2661;50.786;12.728;2023-04-16T12:51:29;11.70;94.20
5276;DHT22;2661;50.786;12.728;2023-04-16T12:53:56;11.70;90.80
5276;DHT22;2661;50.786;12.728;2023-04-16T12:56:22;11.80;72.80
5276;DHT22;2661;50.786;12.728;2023-04-16T12:58:49;11.70;93.10
5276;DHT22;2661;50.786;12.728;2023-04-16T13:01:17;11.80;83.30
5276;DHT22;2661;50.786;12.728;2023-04-16T13:03:44;11.90;73.10
5276;DHT22;2661;50.786;12.728;2023-04-16T13:06:12;11.90;70.50
5276;DHT22;2661;50.786;12.728;2023-04-16T13:08:39;11.90;90.00
5276;DHT22;2661;50.786;12.728;2023-04-16T13:11:06;11.90;99.90
5276;DHT22;2661;50.786;12.728;2023-04-16T13:13:33;11.90;99.90
5276;DHT22;2661;50.786;12.728;2023-04-16T13:15:59;12.00;91.60
5276;DHT22;2661;50.786;12.728;2023-04-16T13:18:26;12.00;99.90
5276;DHT22;2661;50.786;12.728;2023-04-16T13:20:53;11.90;99.90
5276;DHT22;2661;50.786;12.728;2023-04-16T13:23:20;12.10;99.90
5276;DHT22;2661;50.786;12.728;2023-04-16T13:25:47;12.20;90.30
5276;DHT22;2661;50.786;12.728;2023-04-16T13:28:18;12.30;86.10
5276;DHT22;2661;50.786;12.728;2023-04-16T13:30:44;12.20;85.40
5276;DHT22;2661;50.786;12.728;2023-04-16T13:33:12;12.20;95.40
5276;DHT22;2661;50.786;12.728;2023-04-16T13:35:39;12.20;80.60
5276;DHT22;2661;50.786;12.728;2023-04-16T13:38:05;12.30;99.90
5276;DHT22;2661;50.786;12.728;2023-04-16T13:40:32;12.30;91.40
5276;DHT22;2661;50.786;12.728;2023-04-16T13:42:58;12.30;88.90
5276;DHT22;2661;50.786;12.728;2023-04-16T13:45:33;12.30;85.60
5276;DHT22;2661;50.786;12.728;2023-04-16T13:48:00;12.20;90.50
5276;DHT22;2661;50.786;12.728;2023-04-16T13:50:29;12.30;92.00
5276;DHT22;2661;50.786;12.728;2023-04-16T13:52:56;12.30;91.00
5276;DHT22;2661;50.786;12.728;2023-04-16T13:55:22;12.30;80.00
5276;DHT22;2661;50.786;12.728;2023-04-16T13:57:49;12.30;88.60
5276;DHT22;2661;50.786;12.728;2023-04-16T14:00:17;12.40;84.70
5276;DHT22;2661;50.786;12.728;2023-04-16T14:02:44;12.40;99.90
5276;DHT22;2661;50.786;12.728;2023-04-16T14:05:11;12.50;99.90
5276;DHT22;2661;50.786;12.728;2023-04-16T14:07:38;12.60;99.90
5276;DHT22;2661;50.786;12.728;2023-04-16T14:10:05;12.60;99.90
5276;DHT22;2661;50.786;12.728;2023-04-16T14:12:32;12.50;99.90
5276;DHT22;2661;50.786;12.728;2023-04-16T14:14:58;12.40;97.00
5276;DHT22;2661;50.786;12.728;2023-04-16T14:17:25;12.20;93.80
5276;DHT22;2661;50.786;12.728;2023-04-16T14:19:52;12.20;90.70
5276;DHT22;2661;50.786;12.728;2023-04-16T14:22:18;12.20;95.90
5276;DHT22;2661;50.786;12.728;2023-04-16T14:24:45;12.20;92.70
5276;DHT22;2661;50.786;12.728;2023-04-16T14:27:11;12.20;87.30
5276;DHT22;2661;50.786;12.728;2023-04-16T14:29:39;12.20;94.50
5276;DHT22;2661;50.786;12.728;2023-04-16T14:32:06;12.30;95.40
5276;DHT22;2661;50.786;12.728;2023-04-16T14:34:33;12.40;99.90
5276;DHT22;2661;50.786;12.728;2023-04-16T14:37:00;12.50;97.90
5276;DHT22;2661;50.786;12.728;2023-04-16T14:39:26;12.50;99.10
5276;DHT22;2661;50.786;12.728;2023-04-16T14:41:53;12.50;97.70
5276;DHT22;2661;50.786;12.728;2023-04-16T14:44:19;12.30;95.10
5276;DHT22;2661;50.786;12.728;2023-04-16T14:46:47;12.10;90.50
5276;DHT22;2661;50.786;12.728;2023-04-16T14:49:13;12.00;93.40
5276;DHT22;2661;50.786;12.728;2023-04-16T14:51:40;12.00;95.20
5276;DHT22;2661;50.786;12.728;2023-04-16T14:54:07;11.90;93.30
5276;DHT22;2661;50.786;12.728;2023-04-16T14:56:33;11.90;96.80
5276;DHT22;2661;50.786;12.728;2023-04-16T14:59:00;11.80;93.90
5276;DHT22;2661;50.786;12.728;2023-04-16T15:01:26;11.80;91.20
5276;DHT22;2661;50.786;12.728;2023-04-16T15:03:54;11.80;92.20
5276;DHT22;2661;50.786;12.728;2023-04-16T15:06:21;11.80;98.00
5276;DHT22;2661;50.786;12.728;2023-04-16T15:08:48;11.70;96.90
5276;DHT22;2661;50.786;12.728;2023-04-16T15:11:15;11.60;93.30
5276;DHT22;2661;50.786;12.728;2023-04-16T15:13:41;11.60;95.20
5276;DHT22;2661;50.786;12.728;2023-04-16T15:16:08;11.60;94.20
5276;DHT22;2661;50.786;12.728;2023-04-16T15:18:34;11.50;92.20
5276;DHT22;2661;50.786;12.728;2023-04-16T15:21:01;11.40;99.80
5276;DHT22;2661;50.786;12.728;2023-04-16T15:23:27;11.20;95.70
5276;DHT22;2661;50.786;12.728;2023-04-16T15:25:54;11.20;99.90
5276;DHT22;2661;50.786;12.728;2023-04-16T15:28:20;11.10;99.90
5276;DHT22;2661;50.786;12.728;2023-04-16T15:30:49;11.00;99.90
5276;DHT22;2661;50.786;12.728;2023-04-16T15:33:17;10.90;99.90
5276;DHT22;2661;50.786;12.728;2023-04-16T15:35:45;10.90;99.90
5276;DHT22;2661;50.786;12.728;2023-04-16T15:38:12;10.80;99.90
5276;DHT22;2661;50.786;12.728;2023-04-16T15:40:39;10.80;99.90
5276;DHT22;2661;50.786;12.728;2023-04-16T15:43:06;10.60;99.90
5276;DHT22;2661;50.786;12.728;2023-04-16T15:45:32;10.50;99.90
5276;DHT22;2661;50.786;12.728;2023-04-16T15:47:59;10.40;99.90
5276;DHT22;2661;50.786;12.728;2023-04-16T15:50:26;10.40;99.90
5276;DHT22;2661;50.786;12.728;2023-04-16T15:52:52;10.40;99.90
5276;DHT22;2661;50.786;12.728;2023-04-16T15:55:19;10.40;99.90
5276;DHT22;2661;50.786;12.728;2023-04-16T15:57:46;10.40;99.90
5276;DHT22;2661;50.786;12.728;2023-04-16T16:00:12;10.50;99.90
5276;DHT22;2661;50.786;12.728;2023-04-16T16:02:41;10.50;99.90
5276;DHT22;2661;50.786;12.728;2023-04-16T16:05:09;10.40;99.90
5276;DHT22;2661;50.786;12.728;2023-04-16T16:07:36;10.50;99.90
5276;DHT22;2661;50.786;12.728;2023-04-16T16:10:03;10.40;99.90